sensor_id;sensor_type;location;lat;lon;timestamp;pressure;altitude;pressure_sealevel;temperature;humidity
79378;BME280;68959;53.132;17.984;2023-06-22T00:00:54;101274.59;;;20.04;74.65
79378;BME280;68959;53.132;17.984;2023-06-22T00:03:30;101279.22;;;20.05;74.52
79378;BME280;68959;53.132;17.984;2023-06-22T00:05:57;101283.46;;;20.06;74.63
79378;BME280;68959;53.132;17.984;2023-06-22T00:08:24;101287.87;;;20.05;74.41
79378;BME280;68959;53.132;17.984;2023-06-22T00:10:50;101290.77;;;20.06;74.36
79378;BME280;68959;53.132;17.984;2023-06-22T00:13:17;101292.64;;;20.03;74.31
79378;BME280;68959;53.132;17.984;2023-06-22T00:15:45;101293.15;;;20.01;74.54
79378;BME280;68959;53.132;17.984;2023-06-22T00:18:12;101295.75;;;20.00;74.54
79378;BME280;68959;53.132;17.984;2023-06-22T00:20:41;101293.01;;;19.98;74.42
79378;BME280;68959;53.132;17.984;2023-06-22T00:23:08;101298.17;;;19.95;74.51
79378;BME280;68959;53.132;17.984;2023-06-22T00:25:36;101296.44;;;19.93;74.57
79378;BME280;68959;53.132;17.984;2023-06-22T00:28:03;101292.27;;;19.92;74.65
79378;BME280;68959;53.132;17.984;2023-06-22T00:30:31;101299.80;;;19.91;74.72
79378;BME280;68959;53.132;17.984;2023-06-22T00:32:58;101306.05;;;19.91;74.94
79378;BME280;68959;53.132;17.984;2023-06-22T00:35:26;101305.41;;;19.92;74.82
79378;BME280;68959;53.132;17.984;2023-06-22T00:37:56;101310.58;;;19.94;75.01
79378;BME280;68959;53.132;17.984;2023-06-22T00:40:32;101308.95;;;19.92;74.91
79378;BME280;68959;53.132;17.984;2023-06-22T00:42:59;101313.29;;;19.89;74.90
79378;BME280;68959;53.132;17.984;2023-06-22T00:45:26;101317.11;;;19.86;75.04
79378;BME280;68959;53.132;17.984;2023-06-22T00:47:54;101314.31;;;19.86;74.99
79378;BME280;68959;53.132;17.984;2023-06-22T00:50:23;101312.47;;;19.84;75.11
79378;BME280;68959;53.132;17.984;2023-06-22T00:52:52;101311.02;;;19.81;75.21
79378;BME280;68959;53.132;17.984;2023-06-22T00:55:20;101308.20;;;19.79;75.28
79378;BME280;68959;53.132;17.984;2023-06-22T00:57:48;101308.07;;;19.78;75.32
79378;BME280;68959;53.132;17.984;2023-06-22T01:00:16;101315.23;;;19.79;75.43
79378;BME280;68959;53.132;17.984;2023-06-22T01:02:44;101310.73;;;19.77;75.41
79378;BME280;68959;53.132;17.984;2023-06-22T01:05:19;101311.52;;;19.72;75.49
79378;BME280;68959;53.132;17.984;2023-06-22T01:11:00;101314.98;;;19.64;75.87
79378;BME280;68959;53.132;17.984;2023-06-22T01:13:38;101319.25;;;19.57;75.93
79378;BME280;68959;53.132;17.984;2023-06-22T01:16:16;101321.13;;;19.51;75.92
79378;BME280;68959;53.132;17.984;2023-06-22T01:18:44;101321.47;;;19.46;75.79
79378;BME280;68959;53.132;17.984;2023-06-22T01:21:16;101317.73;;;19.41;75.88
79378;BME280;68959;53.132;17.984;2023-06-22T01:26:42;101322.36;;;19.31;75.85
79378;BME280;68959;53.132;17.984;2023-06-22T01:29:11;101321.98;;;19.26;75.87
79378;BME280;68959;53.132;17.984;2023-06-22T01:31:41;101321.70;;;19.21;75.73
79378;BME280;68959;53.132;17.984;2023-06-22T01:34:09;101318.61;;;19.16;75.76
79378;BME280;68959;53.132;17.984;2023-06-22T01:36:38;101321.45;;;19.10;75.47
79378;BME280;68959;53.132;17.984;2023-06-22T01:39:06;101319.73;;;19.03;75.67
79378;BME280;68959;53.132;17.984;2023-06-22T01:41:36;101317.41;;;18.97;75.55
79378;BME280;68959;53.132;17.984;2023-06-22T01:44:07;101321.64;;;18.90;75.49
79378;BME280;68959;53.132;17.984;2023-06-22T01:46:36;101319.62;;;18.86;75.61
79378;BME280;68959;53.132;17.984;2023-06-22T01:49:05;101320.52;;;18.81;75.51
79378;BME280;68959;53.132;17.984;2023-06-22T01:51:32;101324.19;;;18.76;75.47
79378;BME280;68959;53.132;17.984;2023-06-22T01:54:01;101326.33;;;18.70;75.54
79378;BME280;68959;53.132;17.984;2023-06-22T01:56:28;101320.13;;;18.64;75.58
79378;BME280;68959;53.132;17.984;2023-06-22T01:59:13;101318.27;;;18.59;75.64
79378;BME280;68959;53.132;17.984;2023-06-22T02:01:50;101317.90;;;18.53;75.81
79378;BME280;68959;53.132;17.984;2023-06-22T02:04:34;101323.53;;;18.48;75.70
79378;BME280;68959;53.132;17.984;2023-06-22T02:07:05;101321.73;;;18.43;75.84
79378;BME280;68959;53.132;17.984;2023-06-22T02:09:38;101320.23;;;18.40;75.74
79378;BME280;68959;53.132;17.984;2023-06-22T02:12:10;101320.87;;;18.37;75.81
79378;BME280;68959;53.132;17.984;2023-06-22T02:14:38;101318.52;;;18.33;75.83
79378;BME280;68959;53.132;17.984;2023-06-22T02:17:07;101318.70;;;18.30;75.75
79378;BME280;68959;53.132;17.984;2023-06-22T02:19:36;101327.98;;;18.28;76.22
79378;BME280;68959;53.132;17.984;2023-06-22T02:22:04;101339.29;;;18.25;76.23
79378;BME280;68959;53.132;17.984;2023-06-22T02:24:31;101346.31;;;18.24;76.54
79378;BME280;68959;53.132;17.984;2023-06-22T02:27:00;101353.92;;;18.20;76.79
79378;BME280;68959;53.132;17.984;2023-06-22T02:29:28;101352.83;;;18.16;76.81
79378;BME280;68959;53.132;17.984;2023-06-22T02:31:55;101356.41;;;18.10;77.34
79378;BME280;68959;53.132;17.984;2023-06-22T02:34:21;101357.56;;;18.05;77.73
79378;BME280;68959;53.132;17.984;2023-06-22T02:36:49;101356.77;;;18.03;77.62
79378;BME280;68959;53.132;17.984;2023-06-22T02:39:24;101356.22;;;18.02;77.55
79378;BME280;68959;53.132;17.984;2023-06-22T02:41:54;101356.10;;;18.05;77.50
79378;BME280;68959;53.132;17.984;2023-06-22T02:44:22;101353.33;;;18.10;77.32
79378;BME280;68959;53.132;17.984;2023-06-22T02:46:49;101353.52;;;18.15;76.76
79378;BME280;68959;53.132;17.984;2023-06-22T02:49:16;101353.60;;;18.20;76.37
79378;BME280;68959;53.132;17.984;2023-06-22T02:51:47;101356.48;;;18.21;76.00
79378;BME280;68959;53.132;17.984;2023-06-22T02:54:15;101357.81;;;18.22;76.04
79378;BME280;68959;53.132;17.984;2023-06-22T02:56:43;101354.50;;;18.23;75.95
79378;BME280;68959;53.132;17.984;2023-06-22T02:59:12;101354.08;;;18.21;75.51
79378;BME280;68959;53.132;17.984;2023-06-22T03:01:39;101354.92;;;18.21;75.66
79378;BME280;68959;53.132;17.984;2023-06-22T03:04:28;101359.50;;;18.22;75.30
79378;BME280;68959;53.132;17.984;2023-06-22T03:06:55;101358.88;;;18.25;74.89
79378;BME280;68959;53.132;17.984;2023-06-22T03:09:22;101362.86;;;18.28;74.73
79378;BME280;68959;53.132;17.984;2023-06-22T03:11:48;101367.30;;;18.30;74.86
79378;BME280;68959;53.132;17.984;2023-06-22T03:14:15;101368.69;;;18.30;74.68
79378;BME280;68959;53.132;17.984;2023-06-22T03:16:42;101376.56;;;18.32;74.47
79378;BME280;68959;53.132;17.984;2023-06-22T03:19:09;101379.02;;;18.35;74.34
79378;BME280;68959;53.132;17.984;2023-06-22T03:21:37;101378.51;;;18.41;74.27
79378;BME280;68959;53.132;17.984;2023-06-22T03:24:05;101379.30;;;18.48;73.89
79378;BME280;68959;53.132;17.984;2023-06-22T03:26:32;101380.48;;;18.54;73.82
79378;BME280;68959;53.132;17.984;2023-06-22T03:28:59;101374.84;;;18.60;73.28
79378;BME280;68959;53.132;17.984;2023-06-22T03:31:28;101376.16;;;18.63;73.24
79378;BME280;68959;53.132;17.984;2023-06-22T03:33:55;101376.36;;;18.62;73.42
79378;BME280;68959;53.132;17.984;2023-06-22T03:36:23;101382.31;;;18.62;73.34
79378;BME280;68959;53.132;17.984;2023-06-22T03:38:50;101383.63;;;18.62;73.37
79378;BME280;68959;53.132;17.984;2023-06-22T03:41:17;101383.84;;;18.63;73.33
79378;BME280;68959;53.132;17.984;2023-06-22T03:43:44;101389.91;;;18.65;73.25
79378;BME280;68959;53.132;17.984;2023-06-22T03:46:10;101393.16;;;18.65;73.35
79378;BME280;68959;53.132;17.984;2023-06-22T03:48:37;101397.21;;;18.65;73.22
79378;BME280;68959;53.132;17.984;2023-06-22T03:51:04;101406.52;;;18.67;73.19
79378;BME280;68959;53.132;17.984;2023-06-22T03:53:31;101407.15;;;18.69;73.09
79378;BME280;68959;53.132;17.984;2023-06-22T03:55:57;101408.16;;;18.71;73.04
79378;BME280;68959;53.132;17.984;2023-06-22T03:58:24;101400.82;;;18.71;72.93
79378;BME280;68959;53.132;17.984;2023-06-22T04:00:52;101395.70;;;18.67;72.91
79378;BME280;68959;53.132;17.984;2023-06-22T04:03:19;101398.05;;;18.70;72.69
79378;BME280;68959;53.132;17.984;2023-06-22T04:05:46;101399.60;;;18.71;72.81
79378;BME280;68959;53.132;17.984;2023-06-22T04:08:14;101402.63;;;18.76;72.59
79378;BME280;68959;53.132;17.984;2023-06-22T04:10:41;101405.27;;;18.82;72.16
79378;BME280;68959;53.132;17.984;2023-06-22T04:13:08;101410.42;;;18.84;72.31
79378;BME280;68959;53.132;17.984;2023-06-22T04:15:35;101407.80;;;18.84;72.16
79378;BME280;68959;53.132;17.984;2023-06-22T04:18:01;101407.06;;;18.87;72.27
79378;BME280;68959;53.132;17.984;2023-06-22T04:20:28;101407.30;;;18.91;72.18
79378;BME280;68959;53.132;17.984;2023-06-22T04:22:55;101411.67;;;18.98;71.93
79378;BME280;68959;53.132;17.984;2023-06-22T04:25:22;101416.10;;;19.02;71.82
79378;BME280;68959;53.132;17.984;2023-06-22T04:27:49;101413.67;;;19.09;71.61
79378;BME280;68959;53.132;17.984;2023-06-22T04:30:16;101408.61;;;19.16;71.57
79378;BME280;68959;53.132;17.984;2023-06-22T04:32:45;101407.95;;;19.22;71.50
79378;BME280;68959;53.132;17.984;2023-06-22T04:35:11;101401.13;;;19.30;71.12
79378;BME280;68959;53.132;17.984;2023-06-22T04:37:38;101401.65;;;19.36;70.91
79378;BME280;68959;53.132;17.984;2023-06-22T04:40:06;101399.68;;;19.45;70.68
79378;BME280;68959;53.132;17.984;2023-06-22T04:42:38;101398.61;;;19.53;70.65
79378;BME280;68959;53.132;17.984;2023-06-22T04:45:06;101402.90;;;19.61;70.47
79378;BME280;68959;53.132;17.984;2023-06-22T04:47:32;101409.95;;;19.68;70.26
79378;BME280;68959;53.132;17.984;2023-06-22T04:49:59;101410.55;;;19.73;69.54
79378;BME280;68959;53.132;17.984;2023-06-22T04:52:25;101414.48;;;19.80;69.32
79378;BME280;68959;53.132;17.984;2023-06-22T04:54:52;101414.58;;;19.88;69.20
79378;BME280;68959;53.132;17.984;2023-06-22T04:57:22;101413.80;;;19.98;69.37
79378;BME280;68959;53.132;17.984;2023-06-22T04:59:59;101412.42;;;20.04;68.66
79378;BME280;68959;53.132;17.984;2023-06-22T05:02:44;101421.58;;;20.08;68.48
79378;BME280;68959;53.132;17.984;2023-06-22T05:05:15;101418.96;;;20.12;68.02
79378;BME280;68959;53.132;17.984;2023-06-22T05:07:43;101417.29;;;20.14;67.84
79378;BME280;68959;53.132;17.984;2023-06-22T05:10:14;101416.98;;;20.14;67.89
79378;BME280;68959;53.132;17.984;2023-06-22T05:12:42;101427.48;;;20.18;68.07
79378;BME280;68959;53.132;17.984;2023-06-22T05:15:09;101434.81;;;20.26;68.10
79378;BME280;68959;53.132;17.984;2023-06-22T05:17:36;101435.80;;;20.38;68.04
79378;BME280;68959;53.132;17.984;2023-06-22T05:20:04;101429.95;;;20.49;67.24
79378;BME280;68959;53.132;17.984;2023-06-22T05:22:32;101432.06;;;20.54;66.92
79378;BME280;68959;53.132;17.984;2023-06-22T05:24:59;101434.95;;;20.61;66.82
79378;BME280;68959;53.132;17.984;2023-06-22T05:27:26;101440.14;;;20.67;66.37
79378;BME280;68959;53.132;17.984;2023-06-22T05:29:52;101439.30;;;20.77;66.21
79378;BME280;68959;53.132;17.984;2023-06-22T05:32:19;101446.05;;;20.85;65.74
79378;BME280;68959;53.132;17.984;2023-06-22T05:34:46;101447.00;;;20.89;65.54
79378;BME280;68959;53.132;17.984;2023-06-22T05:37:12;101445.02;;;20.96;65.26
79378;BME280;68959;53.132;17.984;2023-06-22T05:39:39;101444.95;;;21.04;64.95
79378;BME280;68959;53.132;17.984;2023-06-22T05:42:07;101444.20;;;21.09;64.72
79378;BME280;68959;53.132;17.984;2023-06-22T05:44:34;101441.41;;;21.14;64.45
79378;BME280;68959;53.132;17.984;2023-06-22T05:47:01;101442.64;;;21.23;64.83
79378;BME280;68959;53.132;17.984;2023-06-22T05:49:27;101436.52;;;21.34;64.44
79378;BME280;68959;53.132;17.984;2023-06-22T05:51:59;101436.55;;;21.48;64.02
79378;BME280;68959;53.132;17.984;2023-06-22T05:54:29;101437.96;;;21.60;63.90
79378;BME280;68959;53.132;17.984;2023-06-22T05:56:56;101434.57;;;21.71;63.53
79378;BME280;68959;53.132;17.984;2023-06-22T05:59:23;101436.05;;;21.80;63.17
79378;BME280;68959;53.132;17.984;2023-06-22T06:01:49;101435.59;;;21.88;62.65
79378;BME280;68959;53.132;17.984;2023-06-22T06:04:17;101431.64;;;21.94;62.29
79378;BME280;68959;53.132;17.984;2023-06-22T06:06:45;101433.20;;;22.01;61.93
79378;BME280;68959;53.132;17.984;2023-06-22T06:09:14;101432.38;;;22.06;61.04
79378;BME280;68959;53.132;17.984;2023-06-22T06:11:41;101433.79;;;22.09;60.31
79378;BME280;68959;53.132;17.984;2023-06-22T06:14:08;101431.99;;;22.22;59.79
79378;BME280;68959;53.132;17.984;2023-06-22T06:16:35;101426.05;;;22.46;59.91
79378;BME280;68959;53.132;17.984;2023-06-22T06:19:02;101425.20;;;22.75;59.58
79378;BME280;68959;53.132;17.984;2023-06-22T06:21:29;101423.58;;;23.04;59.14
79378;BME280;68959;53.132;17.984;2023-06-22T06:23:55;101425.09;;;23.36;58.11
79378;BME280;68959;53.132;17.984;2023-06-22T06:26:22;101429.29;;;23.62;56.35
79378;BME280;68959;53.132;17.984;2023-06-22T06:28:56;101435.34;;;23.82;55.01
79378;BME280;68959;53.132;17.984;2023-06-22T06:31:22;101435.41;;;23.96;53.93
79378;BME280;68959;53.132;17.984;2023-06-22T06:33:52;101434.70;;;24.03;53.17
79378;BME280;68959;53.132;17.984;2023-06-22T06:36:20;101436.14;;;24.03;53.24
79378;BME280;68959;53.132;17.984;2023-06-22T06:38:47;101433.54;;;24.04;52.93
79378;BME280;68959;53.132;17.984;2023-06-22T06:41:15;101432.67;;;24.15;51.65
79378;BME280;68959;53.132;17.984;2023-06-22T06:43:42;101432.05;;;24.32;52.09
79378;BME280;68959;53.132;17.984;2023-06-22T06:46:11;101431.79;;;24.52;51.38
79378;BME280;68959;53.132;17.984;2023-06-22T06:48:38;101430.64;;;24.66;50.57
79378;BME280;68959;53.132;17.984;2023-06-22T06:51:06;101427.37;;;24.85;50.72
79378;BME280;68959;53.132;17.984;2023-06-22T06:53:37;101426.48;;;25.07;50.73
79378;BME280;68959;53.132;17.984;2023-06-22T06:56:05;101418.98;;;25.19;49.73
79378;BME280;68959;53.132;17.984;2023-06-22T06:58:32;101417.11;;;25.36;50.31
79378;BME280;68959;53.132;17.984;2023-06-22T07:00:59;101422.44;;;25.57;48.94
79378;BME280;68959;53.132;17.984;2023-06-22T07:03:25;101432.27;;;25.73;48.24
79378;BME280;68959;53.132;17.984;2023-06-22T07:05:52;101427.23;;;25.91;48.26
79378;BME280;68959;53.132;17.984;2023-06-22T07:08:18;101421.71;;;26.14;47.76
79378;BME280;68959;53.132;17.984;2023-06-22T07:10:45;101427.02;;;26.32;45.89
79378;BME280;68959;53.132;17.984;2023-06-22T07:13:12;101425.75;;;26.38;45.61
79378;BME280;68959;53.132;17.984;2023-06-22T07:15:38;101424.95;;;26.41;45.28
79378;BME280;68959;53.132;17.984;2023-06-22T07:18:05;101428.52;;;26.50;45.13
79378;BME280;68959;53.132;17.984;2023-06-22T07:20:31;101432.21;;;26.57;44.34
79378;BME280;68959;53.132;17.984;2023-06-22T07:22:58;101434.61;;;26.68;43.93
79378;BME280;68959;53.132;17.984;2023-06-22T07:25:25;101431.70;;;26.80;44.00
79378;BME280;68959;53.132;17.984;2023-06-22T07:28:06;101433.77;;;26.96;43.17
79378;BME280;68959;53.132;17.984;2023-06-22T07:30:33;101435.95;;;26.95;42.22
79378;BME280;68959;53.132;17.984;2023-06-22T07:33:01;101440.88;;;27.04;42.52
79378;BME280;68959;53.132;17.984;2023-06-22T07:35:30;101439.89;;;27.22;42.08
79378;BME280;68959;53.132;17.984;2023-06-22T07:37:57;101434.51;;;27.34;41.66
79378;BME280;68959;53.132;17.984;2023-06-22T07:40:23;101445.27;;;27.39;42.03
79378;BME280;68959;53.132;17.984;2023-06-22T07:42:50;101447.77;;;27.57;41.56
79378;BME280;68959;53.132;17.984;2023-06-22T07:45:18;101444.59;;;27.78;41.28
79378;BME280;68959;53.132;17.984;2023-06-22T07:47:45;101441.33;;;28.02;40.81
79378;BME280;68959;53.132;17.984;2023-06-22T07:50:12;101445.20;;;28.22;40.34
79378;BME280;68959;53.132;17.984;2023-06-22T07:52:38;101441.45;;;28.41;39.66
79378;BME280;68959;53.132;17.984;2023-06-22T07:55:05;101438.66;;;28.55;38.82
79378;BME280;68959;53.132;17.984;2023-06-22T07:57:32;101435.15;;;28.71;39.19
79378;BME280;68959;53.132;17.984;2023-06-22T08:00:00;101433.29;;;28.96;38.19
79378;BME280;68959;53.132;17.984;2023-06-22T08:02:27;101443.88;;;29.02;35.99
79378;BME280;68959;53.132;17.984;2023-06-22T08:04:54;101443.33;;;29.13;36.81
79378;BME280;68959;53.132;17.984;2023-06-22T08:07:20;101447.80;;;29.31;36.09
79378;BME280;68959;53.132;17.984;2023-06-22T08:09:47;101447.36;;;29.47;36.23
79378;BME280;68959;53.132;17.984;2023-06-22T08:12:15;101450.55;;;29.74;35.88
79378;BME280;68959;53.132;17.984;2023-06-22T08:14:42;101449.37;;;29.92;35.27
79378;BME280;68959;53.132;17.984;2023-06-22T08:17:10;101451.79;;;30.07;34.97
79378;BME280;68959;53.132;17.984;2023-06-22T08:19:37;101453.98;;;30.25;34.56
79378;BME280;68959;53.132;17.984;2023-06-22T08:22:05;101459.29;;;30.49;34.43
79378;BME280;68959;53.132;17.984;2023-06-22T08:24:31;101457.91;;;30.78;33.63
79378;BME280;68959;53.132;17.984;2023-06-22T08:26:58;101446.70;;;31.05;33.05
79378;BME280;68959;53.132;17.984;2023-06-22T08:29:24;101447.77;;;31.13;32.29
79378;BME280;68959;53.132;17.984;2023-06-22T08:31:51;101446.40;;;31.17;32.26
79378;BME280;68959;53.132;17.984;2023-06-22T08:34:18;101442.92;;;31.40;31.87
79378;BME280;68959;53.132;17.984;2023-06-22T08:36:48;101441.88;;;31.73;31.74
79378;BME280;68959;53.132;17.984;2023-06-22T08:39:19;101442.88;;;32.01;31.67
79378;BME280;68959;53.132;17.984;2023-06-22T08:41:47;101442.13;;;32.26;31.56
79378;BME280;68959;53.132;17.984;2023-06-22T08:44:18;101437.84;;;32.56;30.91
79378;BME280;68959;53.132;17.984;2023-06-22T08:46:45;101438.05;;;32.72;30.48
79378;BME280;68959;53.132;17.984;2023-06-22T08:49:11;101426.04;;;32.85;30.21
79378;BME280;68959;53.132;17.984;2023-06-22T08:51:38;101435.75;;;33.12;29.50
79378;BME280;68959;53.132;17.984;2023-06-22T08:54:04;101433.14;;;33.34;28.42
79378;BME280;68959;53.132;17.984;2023-06-22T08:56:31;101430.85;;;33.38;27.99
79378;BME280;68959;53.132;17.984;2023-06-22T08:58:58;101425.42;;;33.43;28.08
79378;BME280;68959;53.132;17.984;2023-06-22T09:01:25;101433.46;;;33.51;27.62
79378;BME280;68959;53.132;17.984;2023-06-22T09:03:51;101429.94;;;33.60;27.66
79378;BME280;68959;53.132;17.984;2023-06-22T09:06:22;101432.52;;;33.84;26.32
79378;BME280;68959;53.132;17.984;2023-06-22T09:08:48;101432.86;;;34.09;26.35
79378;BME280;68959;53.132;17.984;2023-06-22T09:11:15;101428.64;;;34.43;25.70
79378;BME280;68959;53.132;17.984;2023-06-22T09:13:42;101423.95;;;34.67;24.98
79378;BME280;68959;53.132;17.984;2023-06-22T09:16:09;101425.64;;;34.84;25.14
79378;BME280;68959;53.132;17.984;2023-06-22T09:18:35;101423.40;;;35.10;24.75
79378;BME280;68959;53.132;17.984;2023-06-22T09:21:02;101415.05;;;35.37;23.75
79378;BME280;68959;53.132;17.984;2023-06-22T09:23:29;101405.98;;;35.67;23.62
79378;BME280;68959;53.132;17.984;2023-06-22T09:25:56;101404.83;;;35.97;23.00
79378;BME280;68959;53.132;17.984;2023-06-22T09:28:23;101400.02;;;36.21;22.81
79378;BME280;68959;53.132;17.984;2023-06-22T09:30:49;101394.63;;;36.47;22.04
79378;BME280;68959;53.132;17.984;2023-06-22T09:33:16;101394.27;;;36.44;21.19
79378;BME280;68959;53.132;17.984;2023-06-22T09:35:42;101391.88;;;36.51;21.31
79378;BME280;68959;53.132;17.984;2023-06-22T09:38:09;101397.31;;;36.69;21.12
79378;BME280;68959;53.132;17.984;2023-06-22T09:40:35;101391.11;;;36.91;21.16
79378;BME280;68959;53.132;17.984;2023-06-22T09:43:06;101397.05;;;37.18;21.33
79378;BME280;68959;53.132;17.984;2023-06-22T09:45:32;101391.20;;;37.50;20.95
79378;BME280;68959;53.132;17.984;2023-06-22T09:47:59;101388.41;;;37.92;20.51
79378;BME280;68959;53.132;17.984;2023-06-22T09:50:26;101391.06;;;38.12;20.14
79378;BME280;68959;53.132;17.984;2023-06-22T09:52:52;101389.21;;;38.09;19.36
79378;BME280;68959;53.132;17.984;2023-06-22T09:55:21;101385.93;;;38.05;19.80
79378;BME280;68959;53.132;17.984;2023-06-22T09:57:48;101386.41;;;37.95;19.11
79378;BME280;68959;53.132;17.984;2023-06-22T10:00:16;101385.88;;;37.96;19.12
79378;BME280;68959;53.132;17.984;2023-06-22T10:02:43;101386.92;;;37.93;18.82
79378;BME280;68959;53.132;17.984;2023-06-22T10:05:10;101390.69;;;38.14;19.30
79378;BME280;68959;53.132;17.984;2023-06-22T10:07:37;101386.41;;;38.48;18.76
79378;BME280;68959;53.132;17.984;2023-06-22T10:10:09;101388.39;;;38.65;18.24
79378;BME280;68959;53.132;17.984;2023-06-22T10:12:36;101386.76;;;38.54;18.66
79378;BME280;68959;53.132;17.984;2023-06-22T10:15:04;101387.13;;;38.63;18.96
79378;BME280;68959;53.132;17.984;2023-06-22T10:17:30;101383.95;;;38.96;18.57
79378;BME280;68959;53.132;17.984;2023-06-22T10:19:57;101385.34;;;39.23;18.11
79378;BME280;68959;53.132;17.984;2023-06-22T10:22:24;101380.55;;;39.48;18.30
79378;BME280;68959;53.132;17.984;2023-06-22T10:24:50;101375.77;;;39.80;18.22
79378;BME280;68959;53.132;17.984;2023-06-22T10:27:17;101369.27;;;40.27;17.86
79378;BME280;68959;53.132;17.984;2023-06-22T10:29:44;101366.08;;;40.68;17.49
79378;BME280;68959;53.132;17.984;2023-06-22T10:32:10;101360.63;;;41.01;16.94
79378;BME280;68959;53.132;17.984;2023-06-22T10:34:38;101364.91;;;41.09;16.71
79378;BME280;68959;53.132;17.984;2023-06-22T10:37:05;101368.12;;;40.90;16.82
79378;BME280;68959;53.132;17.984;2023-06-22T10:39:32;101367.40;;;40.96;17.23
79378;BME280;68959;53.132;17.984;2023-06-22T10:41:58;101367.95;;;41.28;16.88
79378;BME280;68959;53.132;17.984;2023-06-22T10:44:25;101365.05;;;41.50;16.59
79378;BME280;68959;53.132;17.984;2023-06-22T10:46:52;101358.14;;;41.73;16.00
79378;BME280;68959;53.132;17.984;2023-06-22T10:49:18;101357.20;;;42.02;16.22
79378;BME280;68959;53.132;17.984;2023-06-22T10:51:45;101351.18;;;42.44;15.98
79378;BME280;68959;53.132;17.984;2023-06-22T10:54:12;101352.00;;;42.69;14.98
79378;BME280;68959;53.132;17.984;2023-06-22T10:56:40;101353.27;;;42.70;15.00
79378;BME280;68959;53.132;17.984;2023-06-22T10:59:07;101340.55;;;42.96;14.50
79378;BME280;68959;53.132;17.984;2023-06-22T11:01:33;101344.94;;;42.86;14.84
79378;BME280;68959;53.132;17.984;2023-06-22T11:04:00;101345.63;;;43.00;15.10
79378;BME280;68959;53.132;17.984;2023-06-22T11:06:26;101345.02;;;43.14;14.73
79378;BME280;68959;53.132;17.984;2023-06-22T11:08:53;101344.39;;;43.08;14.59
79378;BME280;68959;53.132;17.984;2023-06-22T11:11:20;101347.80;;;43.34;14.54
79378;BME280;68959;53.132;17.984;2023-06-22T11:13:46;101352.09;;;43.77;13.90
79378;BME280;68959;53.132;17.984;2023-06-22T11:16:13;101352.67;;;43.63;13.61
79378;BME280;68959;53.132;17.984;2023-06-22T11:18:40;101353.14;;;43.49;13.66
79378;BME280;68959;53.132;17.984;2023-06-22T11:21:06;101350.70;;;43.64;13.47
79378;BME280;68959;53.132;17.984;2023-06-22T11:23:33;101353.48;;;43.66;13.83
79378;BME280;68959;53.132;17.984;2023-06-22T11:25:59;101351.71;;;43.73;14.00
79378;BME280;68959;53.132;17.984;2023-06-22T11:28:27;101348.56;;;44.00;13.91
79378;BME280;68959;53.132;17.984;2023-06-22T11:30:54;101348.33;;;43.97;13.77
79378;BME280;68959;53.132;17.984;2023-06-22T11:33:21;101346.38;;;43.78;13.79
79378;BME280;68959;53.132;17.984;2023-06-22T11:35:47;101348.34;;;43.92;13.79
79378;BME280;68959;53.132;17.984;2023-06-22T11:38:14;101344.11;;;43.84;13.22
79378;BME280;68959;53.132;17.984;2023-06-22T11:40:40;101345.62;;;43.47;12.95
79378;BME280;68959;53.132;17.984;2023-06-22T11:43:07;101342.52;;;42.91;13.37
79378;BME280;68959;53.132;17.984;2023-06-22T11:45:33;101348.62;;;42.82;13.57
79378;BME280;68959;53.132;17.984;2023-06-22T11:48:00;101345.84;;;42.83;13.56
79378;BME280;68959;53.132;17.984;2023-06-22T11:50:26;101340.24;;;43.21;13.33
79378;BME280;68959;53.132;17.984;2023-06-22T11:52:55;101338.96;;;43.67;13.38
79378;BME280;68959;53.132;17.984;2023-06-22T11:55:22;101339.77;;;42.68;13.90
79378;BME280;68959;53.132;17.984;2023-06-22T11:57:54;101333.47;;;41.67;14.85
79378;BME280;68959;53.132;17.984;2023-06-22T12:00:22;101331.16;;;42.16;14.48
79378;BME280;68959;53.132;17.984;2023-06-22T12:02:51;101327.33;;;42.78;14.23
79378;BME280;68959;53.132;17.984;2023-06-22T12:05:19;101324.22;;;43.35;13.23
79378;BME280;68959;53.132;17.984;2023-06-22T12:07:48;101321.89;;;43.53;13.22
79378;BME280;68959;53.132;17.984;2023-06-22T12:10:15;101312.23;;;43.96;13.19
79378;BME280;68959;53.132;17.984;2023-06-22T12:12:42;101312.77;;;44.56;12.35
79378;BME280;68959;53.132;17.984;2023-06-22T12:15:09;101309.80;;;44.45;11.97
79378;BME280;68959;53.132;17.984;2023-06-22T12:17:36;101309.07;;;44.53;11.95
79378;BME280;68959;53.132;17.984;2023-06-22T12:20:04;101299.66;;;44.51;12.28
79378;BME280;68959;53.132;17.984;2023-06-22T12:22:32;101296.27;;;44.40;12.49
79378;BME280;68959;53.132;17.984;2023-06-22T12:24:59;101301.73;;;44.34;12.36
79378;BME280;68959;53.132;17.984;2023-06-22T12:27:26;101306.63;;;44.11;12.44
79378;BME280;68959;53.132;17.984;2023-06-22T12:29:53;101301.31;;;44.38;12.38
79378;BME280;68959;53.132;17.984;2023-06-22T12:32:20;101297.11;;;44.54;12.51
79378;BME280;68959;53.132;17.984;2023-06-22T12:34:46;101293.05;;;44.63;12.61
79378;BME280;68959;53.132;17.984;2023-06-22T12:37:13;101295.14;;;44.73;12.44
79378;BME280;68959;53.132;17.984;2023-06-22T12:39:40;101293.40;;;44.83;12.71
79378;BME280;68959;53.132;17.984;2023-06-22T12:42:08;101283.41;;;45.02;11.97
79378;BME280;68959;53.132;17.984;2023-06-22T12:44:38;101281.17;;;44.69;11.92
79378;BME280;68959;53.132;17.984;2023-06-22T12:47:05;101286.80;;;44.53;12.26
79378;BME280;68959;53.132;17.984;2023-06-22T12:49:32;101277.23;;;44.54;12.02